sensor_id;sensor_type;location;lat;lon;timestamp;temperature;humidity
6666;DHT22;3369;49.906;8.598;2023-12-07T00:01:14;2.40;99.90
6666;DHT22;3369;49.906;8.598;2023-12-07T00:03:40;2.50;99.90
6666;DHT22;3369;49.906;8.598;2023-12-07T00:06:05;2.40;99.90
6666;DHT22;3369;49.906;8.598;2023-12-07T00:08:31;2.40;99.90
6666;DHT22;3369;49.906;8.598;2023-12-07T00:10:57;2.30;99.90
6666;DHT22;3369;49.906;8.598;2023-12-07T00:13:22;2.30;99.90
6666;DHT22;3369;49.906;8.598;2023-12-07T00:15:48;2.30;99.90
6666;DHT22;3369;49.906;8.598;2023-12-07T00:18:13;2.30;99.90
6666;DHT22;3369;49.906;8.598;2023-12-07T00:20:39;2.30;99.90
6666;DHT22;3369;49.906;8.598;2023-12-07T00:23:05;2.20;99.90
6666;DHT22;3369;49.906;8.598;2023-12-07T00:25:31;2.20;99.90
6666;DHT22;3369;49.906;8.598;2023-12-07T00:27:57;2.20;99.90
6666;DHT22;3369;49.906;8.598;2023-12-07T00:30:22;2.20;99.90
6666;DHT22;3369;49.906;8.598;2023-12-07T00:32:48;2.10;99.90
6666;DHT22;3369;49.906;8.598;2023-12-07T00:35:13;2.10;99.90
6666;DHT22;3369;49.906;8.598;2023-12-07T00:37:40;2.10;99.90
6666;DHT22;3369;49.906;8.598;2023-12-07T00:40:06;2.00;99.90
6666;DHT22;3369;49.906;8.598;2023-12-07T00:42:33;2.00;99.90
6666;DHT22;3369;49.906;8.598;2023-12-07T00:45:00;2.00;99.90
6666;DHT22;3369;49.906;8.598;2023-12-07T00:47:25;2.00;99.90
6666;DHT22;3369;49.906;8.598;2023-12-07T00:49:51;2.00;99.90
6666;DHT22;3369;49.906;8.598;2023-12-07T01:01:04;1.90;99.90
6666;DHT22;3369;49.906;8.598;2023-12-07T02:30:03;1.10;99.90
6666;DHT22;3369;49.906;8.598;2023-12-07T03:01:11;1.00;99.90
6666;DHT22;3369;49.906;8.598;2023-12-07T03:38:42;0.70;99.90
6666;DHT22;3369;49.906;8.598;2023-12-07T03:48:59;0.60;99.90
6666;DHT22;3369;49.906;8.598;2023-12-07T05:10:48;0.30;99.90
6666;DHT22;3369;49.906;8.598;2023-12-07T06:54:26;0.40;99.90
6666;DHT22;3369;49.906;8.598;2023-12-07T06:56:52;0.30;99.90
6666;DHT22;3369;49.906;8.598;2023-12-07T06:59:17;0.40;99.90
6666;DHT22;3369;49.906;8.598;2023-12-07T08:48:20;1.40;99.90
6666;DHT22;3369;49.906;8.598;2023-12-07T08:50:46;1.40;99.90
6666;DHT22;3369;49.906;8.598;2023-12-07T08:53:12;1.40;99.90
6666;DHT22;3369;49.906;8.598;2023-12-07T08:55:37;1.40;99.90
6666;DHT22;3369;49.906;8.598;2023-12-07T08:58:03;1.50;99.90
6666;DHT22;3369;49.906;8.598;2023-12-07T09:00:32;1.50;99.90
6666;DHT22;3369;49.906;8.598;2023-12-07T09:02:58;1.50;99.90
6666;DHT22;3369;49.906;8.598;2023-12-07T09:05:28;1.50;99.90
6666;DHT22;3369;49.906;8.598;2023-12-07T09:07:53;1.50;99.90
6666;DHT22;3369;49.906;8.598;2023-12-07T09:10:19;1.60;99.90
6666;DHT22;3369;49.906;8.598;2023-12-07T09:12:45;1.60;99.90
6666;DHT22;3369;49.906;8.598;2023-12-07T09:15:11;1.70;99.90
6666;DHT22;3369;49.906;8.598;2023-12-07T09:17:38;1.70;99.90
6666;DHT22;3369;49.906;8.598;2023-12-07T09:20:08;1.70;99.90
6666;DHT22;3369;49.906;8.598;2023-12-07T09:22:42;1.70;99.90
6666;DHT22;3369;49.906;8.598;2023-12-07T09:25:08;1.80;99.90
6666;DHT22;3369;49.906;8.598;2023-12-07T09:27:34;1.80;99.90
6666;DHT22;3369;49.906;8.598;2023-12-07T09:30:06;1.80;99.90
6666;DHT22;3369;49.906;8.598;2023-12-07T09:32:32;1.80;99.90
6666;DHT22;3369;49.906;8.598;2023-12-07T09:35:04;1.80;99.90
6666;DHT22;3369;49.906;8.598;2023-12-07T09:37:32;1.90;99.90
6666;DHT22;3369;49.906;8.598;2023-12-07T09:39:58;1.90;99.90
6666;DHT22;3369;49.906;8.598;2023-12-07T09:42:23;1.90;99.90
6666;DHT22;3369;49.906;8.598;2023-12-07T09:44:49;1.90;99.90
6666;DHT22;3369;49.906;8.598;2023-12-07T09:47:14;2.00;99.90
6666;DHT22;3369;49.906;8.598;2023-12-07T09:49:40;2.00;99.90
6666;DHT22;3369;49.906;8.598;2023-12-07T09:52:07;2.00;99.90
6666;DHT22;3369;49.906;8.598;2023-12-07T09:54:33;2.00;99.90
6666;DHT22;3369;49.906;8.598;2023-12-07T09:57:01;2.00;99.90
6666;DHT22;3369;49.906;8.598;2023-12-07T09:59:27;2.00;99.90
6666;DHT22;3369;49.906;8.598;2023-12-07T10:01:53;1.90;99.90
6666;DHT22;3369;49.906;8.598;2023-12-07T10:04:22;1.90;99.90
6666;DHT22;3369;49.906;8.598;2023-12-07T10:06:52;1.90;99.90
6666;DHT22;3369;49.906;8.598;2023-12-07T10:09:20;1.90;99.90
6666;DHT22;3369;49.906;8.598;2023-12-07T10:11:49;1.90;99.90
6666;DHT22;3369;49.906;8.598;2023-12-07T10:14:15;1.90;99.90
6666;DHT22;3369;49.906;8.598;2023-12-07T10:16:54;1.90;99.90
6666;DHT22;3369;49.906;8.598;2023-12-07T10:19:23;1.80;99.90
6666;DHT22;3369;49.906;8.598;2023-12-07T10:21:49;1.80;99.90
6666;DHT22;3369;49.906;8.598;2023-12-07T10:24:19;1.80;99.90
6666;DHT22;3369;49.906;8.598;2023-12-07T10:26:46;1.80;99.90
6666;DHT22;3369;49.906;8.598;2023-12-07T10:29:11;1.70;99.90
6666;DHT22;3369;49.906;8.598;2023-12-07T10:31:37;1.70;99.90
6666;DHT22;3369;49.906;8.598;2023-12-07T10:34:04;1.70;99.90
6666;DHT22;3369;49.906;8.598;2023-12-07T10:36:30;1.70;99.90
6666;DHT22;3369;49.906;8.598;2023-12-07T10:38:56;1.60;99.90
6666;DHT22;3369;49.906;8.598;2023-12-07T10:41:23;1.60;99.90
6666;DHT22;3369;49.906;8.598;2023-12-07T10:44:01;1.60;99.90
6666;DHT22;3369;49.906;8.598;2023-12-07T10:46:29;1.50;99.90
6666;DHT22;3369;49.906;8.598;2023-12-07T10:49:00;1.50;99.90
6666;DHT22;3369;49.906;8.598;2023-12-07T10:51:38;1.40;99.90
6666;DHT22;3369;49.906;8.598;2023-12-07T10:54:07;1.40;99.90
6666;DHT22;3369;49.906;8.598;2023-12-07T10:56:44;1.40;99.90
6666;DHT22;3369;49.906;8.598;2023-12-07T10:59:11;1.30;99.90
6666;DHT22;3369;49.906;8.598;2023-12-07T11:01:40;1.30;99.90
6666;DHT22;3369;49.906;8.598;2023-12-07T11:04:06;1.30;99.90
6666;DHT22;3369;49.906;8.598;2023-12-07T11:06:35;1.20;99.90
6666;DHT22;3369;49.906;8.598;2023-12-07T11:09:08;1.20;99.90
6666;DHT22;3369;49.906;8.598;2023-12-07T11:11:41;1.20;99.90
6666;DHT22;3369;49.906;8.598;2023-12-07T11:14:10;1.20;99.90
6666;DHT22;3369;49.906;8.598;2023-12-07T11:16:40;1.20;99.90
6666;DHT22;3369;49.906;8.598;2023-12-07T11:21:57;1.20;99.90
6666;DHT22;3369;49.906;8.598;2023-12-07T11:24:23;1.20;99.90
6666;DHT22;3369;49.906;8.598;2023-12-07T11:26:52;1.20;99.90
6666;DHT22;3369;49.906;8.598;2023-12-07T11:29:20;1.20;99.90
6666;DHT22;3369;49.906;8.598;2023-12-07T11:31:46;1.20;99.90
6666;DHT22;3369;49.906;8.598;2023-12-07T11:34:12;1.20;99.90
6666;DHT22;3369;49.906;8.598;2023-12-07T11:36:40;1.20;99.90
6666;DHT22;3369;49.906;8.598;2023-12-07T11:41:46;1.30;99.90
6666;DHT22;3369;49.906;8.598;2023-12-07T11:44:14;1.30;99.90
6666;DHT22;3369;49.906;8.598;2023-12-07T11:46:42;1.30;99.90
6666;DHT22;3369;49.906;8.598;2023-12-07T11:49:08;1.30;99.90
6666;DHT22;3369;49.906;8.598;2023-12-07T11:51:36;1.30;99.90
6666;DHT22;3369;49.906;8.598;2023-12-07T11:54:02;1.30;99.90
6666;DHT22;3369;49.906;8.598;2023-12-07T11:56:28;1.40;99.90
6666;DHT22;3369;49.906;8.598;2023-12-07T11:58:53;1.40;99.90
6666;DHT22;3369;49.906;8.598;2023-12-07T12:01:21;1.40;99.90
6666;DHT22;3369;49.906;8.598;2023-12-07T12:03:47;1.40;99.90
6666;DHT22;3369;49.906;8.598;2023-12-07T12:06:13;1.50;99.90
6666;DHT22;3369;49.906;8.598;2023-12-07T12:08:40;1.50;99.90
6666;DHT22;3369;49.906;8.598;2023-12-07T12:11:07;1.50;99.90
6666;DHT22;3369;49.906;8.598;2023-12-07T12:13:36;1.50;99.90
6666;DHT22;3369;49.906;8.598;2023-12-07T12:16:03;1.50;99.90
6666;DHT22;3369;49.906;8.598;2023-12-07T12:18:29;1.50;99.90
6666;DHT22;3369;49.906;8.598;2023-12-07T12:20:54;1.40;99.90
6666;DHT22;3369;49.906;8.598;2023-12-07T12:23:20;1.50;99.90
6666;DHT22;3369;49.906;8.598;2023-12-07T12:25:46;1.50;99.90
6666;DHT22;3369;49.906;8.598;2023-12-07T12:28:16;1.50;99.90
6666;DHT22;3369;49.906;8.598;2023-12-07T12:30:47;1.50;99.90
6666;DHT22;3369;49.906;8.598;2023-12-07T12:33:13;1.50;99.90
6666;DHT22;3369;49.906;8.598;2023-12-07T12:35:40;1.60;99.90
6666;DHT22;3369;49.906;8.598;2023-12-07T12:38:10;1.60;99.90
6666;DHT22;3369;49.906;8.598;2023-12-07T12:40:39;1.70;99.90
6666;DHT22;3369;49.906;8.598;2023-12-07T12:43:07;1.70;99.90
6666;DHT22;3369;49.906;8.598;2023-12-07T12:45:33;1.70;99.90
6666;DHT22;3369;49.906;8.598;2023-12-07T12:47:59;1.70;99.90
6666;DHT22;3369;49.906;8.598;2023-12-07T12:50:37;1.70;99.90
6666;DHT22;3369;49.906;8.598;2023-12-07T12:53:08;1.70;99.90
6666;DHT22;3369;49.906;8.598;2023-12-07T12:55:39;1.70;99.90
6666;DHT22;3369;49.906;8.598;2023-12-07T12:58:09;1.80;99.90
6666;DHT22;3369;49.906;8.598;2023-12-07T13:00:39;1.80;99.90
6666;DHT22;3369;49.906;8.598;2023-12-07T13:03:05;1.80;99.90
6666;DHT22;3369;49.906;8.598;2023-12-07T13:05:31;1.90;99.90
6666;DHT22;3369;49.906;8.598;2023-12-07T13:07:58;1.90;99.90
6666;DHT22;3369;49.906;8.598;2023-12-07T13:10:25;2.00;99.90
6666;DHT22;3369;49.906;8.598;2023-12-07T13:12:51;2.00;99.90
6666;DHT22;3369;49.906;8.598;2023-12-07T13:15:16;2.00;99.90
6666;DHT22;3369;49.906;8.598;2023-12-07T13:17:43;2.10;99.90
6666;DHT22;3369;49.906;8.598;2023-12-07T13:20:09;2.10;99.90
6666;DHT22;3369;49.906;8.598;2023-12-07T13:22:42;2.10;99.90
6666;DHT22;3369;49.906;8.598;2023-12-07T13:25:11;2.20;99.90
6666;DHT22;3369;49.906;8.598;2023-12-07T13:27:40;2.20;99.90
6666;DHT22;3369;49.906;8.598;2023-12-07T13:30:08;2.20;99.90
6666;DHT22;3369;49.906;8.598;2023-12-07T13:32:35;2.20;99.90
6666;DHT22;3369;49.906;8.598;2023-12-07T13:35:03;2.20;99.90
6666;DHT22;3369;49.906;8.598;2023-12-07T13:37:29;2.20;99.90
6666;DHT22;3369;49.906;8.598;2023-12-07T13:39:54;2.20;99.90
6666;DHT22;3369;49.906;8.598;2023-12-07T13:42:24;2.20;99.90
6666;DHT22;3369;49.906;8.598;2023-12-07T13:44:57;2.20;99.90
6666;DHT22;3369;49.906;8.598;2023-12-07T13:47:24;2.30;99.90
6666;DHT22;3369;49.906;8.598;2023-12-07T13:49:55;2.30;99.90
6666;DHT22;3369;49.906;8.598;2023-12-07T13:52:20;2.30;99.90
6666;DHT22;3369;49.906;8.598;2023-12-07T13:54:46;2.30;99.90
6666;DHT22;3369;49.906;8.598;2023-12-07T13:57:14;2.30;99.90
6666;DHT22;3369;49.906;8.598;2023-12-07T13:59:39;2.30;99.90
6666;DHT22;3369;49.906;8.598;2023-12-07T14:02:06;2.30;99.90
6666;DHT22;3369;49.906;8.598;2023-12-07T14:04:34;2.30;99.90
6666;DHT22;3369;49.906;8.598;2023-12-07T14:07:11;2.40;99.90
6666;DHT22;3369;49.906;8.598;2023-12-07T14:09:39;2.40;99.90
6666;DHT22;3369;49.906;8.598;2023-12-07T14:12:05;2.40;99.90
6666;DHT22;3369;49.906;8.598;2023-12-07T14:14:31;2.30;99.90
6666;DHT22;3369;49.906;8.598;2023-12-07T14:16:57;2.40;99.90
6666;DHT22;3369;49.906;8.598;2023-12-07T14:19:23;2.40;99.90
6666;DHT22;3369;49.906;8.598;2023-12-07T14:21:48;2.30;99.90
6666;DHT22;3369;49.906;8.598;2023-12-07T14:24:14;2.40;99.90
6666;DHT22;3369;49.906;8.598;2023-12-07T14:26:43;2.40;99.90
6666;DHT22;3369;49.906;8.598;2023-12-07T14:29:09;2.40;99.90
6666;DHT22;3369;49.906;8.598;2023-12-07T14:31:40;2.40;99.90
6666;DHT22;3369;49.906;8.598;2023-12-07T14:34:06;2.40;99.90
6666;DHT22;3369;49.906;8.598;2023-12-07T14:36:32;2.40;99.90
6666;DHT22;3369;49.906;8.598;2023-12-07T14:38:57;2.40;99.90
6666;DHT22;3369;49.906;8.598;2023-12-07T14:41:23;2.40;99.90
6666;DHT22;3369;49.906;8.598;2023-12-07T14:43:48;2.40;99.90
6666;DHT22;3369;49.906;8.598;2023-12-07T14:46:14;2.40;99.90
6666;DHT22;3369;49.906;8.598;2023-12-07T14:48:40;2.30;99.90
6666;DHT22;3369;49.906;8.598;2023-12-07T14:51:05;2.30;99.90
6666;DHT22;3369;49.906;8.598;2023-12-07T14:53:32;2.20;99.90
6666;DHT22;3369;49.906;8.598;2023-12-07T14:55:59;2.20;99.90
6666;DHT22;3369;49.906;8.598;2023-12-07T14:58:25;2.10;99.90
6666;DHT22;3369;49.906;8.598;2023-12-07T15:00:51;2.10;99.90
6666;DHT22;3369;49.906;8.598;2023-12-07T15:03:16;2.10;99.90
6666;DHT22;3369;49.906;8.598;2023-12-07T15:05:44;2.10;99.90
6666;DHT22;3369;49.906;8.598;2023-12-07T15:08:10;2.00;99.90
6666;DHT22;3369;49.906;8.598;2023-12-07T15:10:37;2.00;99.90
6666;DHT22;3369;49.906;8.598;2023-12-07T15:13:03;1.90;99.90
6666;DHT22;3369;49.906;8.598;2023-12-07T15:15:29;1.80;99.90
6666;DHT22;3369;49.906;8.598;2023-12-07T15:17:56;1.80;99.90
6666;DHT22;3369;49.906;8.598;2023-12-07T15:20:21;1.70;99.90
6666;DHT22;3369;49.906;8.598;2023-12-07T15:22:47;1.60;99.90
6666;DHT22;3369;49.906;8.598;2023-12-07T15:25:13;1.60;99.90
6666;DHT22;3369;49.906;8.598;2023-12-07T15:27:38;1.60;99.90
6666;DHT22;3369;49.906;8.598;2023-12-07T15:30:05;1.50;99.90
6666;DHT22;3369;49.906;8.598;2023-12-07T15:32:32;1.50;99.90
6666;DHT22;3369;49.906;8.598;2023-12-07T15:34:58;1.50;99.90
6666;DHT22;3369;49.906;8.598;2023-12-07T15:37:24;1.50;99.90
6666;DHT22;3369;49.906;8.598;2023-12-07T15:39:50;1.50;99.90
6666;DHT22;3369;49.906;8.598;2023-12-07T15:42:16;1.50;99.90
6666;DHT22;3369;49.906;8.598;2023-12-07T15:44:42;1.40;99.90
6666;DHT22;3369;49.906;8.598;2023-12-07T15:47:08;1.40;99.90
6666;DHT22;3369;49.906;8.598;2023-12-07T15:49:33;1.40;99.90
6666;DHT22;3369;49.906;8.598;2023-12-07T15:51:59;1.40;99.90
6666;DHT22;3369;49.906;8.598;2023-12-07T15:54:25;1.40;99.90
6666;DHT22;3369;49.906;8.598;2023-12-07T15:56:51;1.40;99.90
6666;DHT22;3369;49.906;8.598;2023-12-07T15:59:16;1.40;99.90
6666;DHT22;3369;49.906;8.598;2023-12-07T16:01:42;1.40;99.90
6666;DHT22;3369;49.906;8.598;2023-12-07T16:04:07;1.30;99.90
6666;DHT22;3369;49.906;8.598;2023-12-07T16:06:33;1.30;99.90
6666;DHT22;3369;49.906;8.598;2023-12-07T16:08:59;1.30;99.90
6666;DHT22;3369;49.906;8.598;2023-12-07T16:11:24;1.20;99.90
6666;DHT22;3369;49.906;8.598;2023-12-07T16:13:50;1.20;99.90
6666;DHT22;3369;49.906;8.598;2023-12-07T16:16:15;1.30;99.90
6666;DHT22;3369;49.906;8.598;2023-12-07T16:18:41;1.20;99.90
6666;DHT22;3369;49.906;8.598;2023-12-07T16:21:07;1.20;99.90
6666;DHT22;3369;49.906;8.598;2023-12-07T16:23:32;1.20;99.90
6666;DHT22;3369;49.906;8.598;2023-12-07T16:25:58;1.20;99.90
6666;DHT22;3369;49.906;8.598;2023-12-07T16:28:24;1.20;99.90
6666;DHT22;3369;49.906;8.598;2023-12-07T16:30:49;1.20;99.90
6666;DHT22;3369;49.906;8.598;2023-12-07T16:33:15;1.10;99.90
6666;DHT22;3369;49.906;8.598;2023-12-07T16:35:40;1.10;99.90
6666;DHT22;3369;49.906;8.598;2023-12-07T16:38:06;1.10;99.90
6666;DHT22;3369;49.906;8.598;2023-12-07T16:40:32;1.10;99.90
6666;DHT22;3369;49.906;8.598;2023-12-07T16:42:58;1.10;99.90
6666;DHT22;3369;49.906;8.598;2023-12-07T16:45:23;1.10;99.90
6666;DHT22;3369;49.906;8.598;2023-12-07T16:47:49;1.00;99.90
6666;DHT22;3369;49.906;8.598;2023-12-07T16:50:15;1.10;99.90
6666;DHT22;3369;49.906;8.598;2023-12-07T16:52:41;1.00;99.90
6666;DHT22;3369;49.906;8.598;2023-12-07T16:55:07;1.00;99.90
6666;DHT22;3369;49.906;8.598;2023-12-07T16:57:32;1.00;99.90
6666;DHT22;3369;49.906;8.598;2023-12-07T16:59:58;1.00;99.90
6666;DHT22;3369;49.906;8.598;2023-12-07T17:02:24;0.90;99.90
6666;DHT22;3369;49.906;8.598;2023-12-07T17:04:52;1.00;99.90
6666;DHT22;3369;49.906;8.598;2023-12-07T17:07:17;1.00;99.90
6666;DHT22;3369;49.906;8.598;2023-12-07T17:09:43;0.90;99.90
6666;DHT22;3369;49.906;8.598;2023-12-07T17:12:09;0.90;99.90
6666;DHT22;3369;49.906;8.598;2023-12-07T17:14:35;0.90;99.90
6666;DHT22;3369;49.906;8.598;2023-12-07T17:17:03;0.90;99.90
6666;DHT22;3369;49.906;8.598;2023-12-07T17:19:29;0.90;99.90
6666;DHT22;3369;49.906;8.598;2023-12-07T17:21:54;0.90;99.90
6666;DHT22;3369;49.906;8.598;2023-12-07T17:24:20;0.80;99.90
6666;DHT22;3369;49.906;8.598;2023-12-07T17:26:46;0.80;99.90
6666;DHT22;3369;49.906;8.598;2023-12-07T17:29:11;0.80;99.90
6666;DHT22;3369;49.906;8.598;2023-12-07T17:31:38;0.80;99.90
6666;DHT22;3369;49.906;8.598;2023-12-07T17:34:04;0.80;99.90
6666;DHT22;3369;49.906;8.598;2023-12-07T17:36:30;0.80;99.90
6666;DHT22;3369;49.906;8.598;2023-12-07T17:38:56;0.80;99.90
6666;DHT22;3369;49.906;8.598;2023-12-07T17:41:21;0.80;99.90
6666;DHT22;3369;49.906;8.598;2023-12-07T17:43:47;0.80;99.90
6666;DHT22;3369;49.906;8.598;2023-12-07T17:46:13;0.80;99.90
6666;DHT22;3369;49.906;8.598;2023-12-07T17:48:39;0.80;99.90
6666;DHT22;3369;49.906;8.598;2023-12-07T17:51:05;0.80;99.90
6666;DHT22;3369;49.906;8.598;2023-12-07T17:53:30;0.80;99.90
6666;DHT22;3369;49.906;8.598;2023-12-07T17:55:56;0.80;99.90
6666;DHT22;3369;49.906;8.598;2023-12-07T17:58:22;0.80;99.90
6666;DHT22;3369;49.906;8.598;2023-12-07T18:00:47;0.80;99.90
6666;DHT22;3369;49.906;8.598;2023-12-07T18:03:13;0.80;99.90
6666;DHT22;3369;49.906;8.598;2023-12-07T18:05:39;0.80;99.90
6666;DHT22;3369;49.906;8.598;2023-12-07T18:08:04;0.80;99.90
6666;DHT22;3369;49.906;8.598;2023-12-07T18:10:30;0.80;99.90
6666;DHT22;3369;49.906;8.598;2023-12-07T18:12:56;0.80;99.90
6666;DHT22;3369;49.906;8.598;2023-12-07T18:15:22;0.80;99.90
6666;DHT22;3369;49.906;8.598;2023-12-07T18:17:47;0.80;99.90
6666;DHT22;3369;49.906;8.598;2023-12-07T18:20:13;0.80;99.90
6666;DHT22;3369;49.906;8.598;2023-12-07T18:22:39;0.90;99.90
6666;DHT22;3369;49.906;8.598;2023-12-07T18:25:05;0.90;99.90
6666;DHT22;3369;49.906;8.598;2023-12-07T18:27:31;0.90;99.90
6666;DHT22;3369;49.906;8.598;2023-12-07T18:29:57;0.90;99.90
6666;DHT22;3369;49.906;8.598;2023-12-07T18:32:23;0.90;99.90
6666;DHT22;3369;49.906;8.598;2023-12-07T18:34:49;0.90;99.90
6666;DHT22;3369;49.906;8.598;2023-12-07T18:37:14;0.90;99.90
6666;DHT22;3369;49.906;8.598;2023-12-07T18:39:40;0.80;99.90
6666;DHT22;3369;49.906;8.598;2023-12-07T18:42:06;0.90;99.90
6666;DHT22;3369;49.906;8.598;2023-12-07T18:44:34;0.80;99.90
6666;DHT22;3369;49.906;8.598;2023-12-07T18:47:00;0.80;99.90
6666;DHT22;3369;49.906;8.598;2023-12-07T18:49:25;0.70;99.90
6666;DHT22;3369;49.906;8.598;2023-12-07T18:51:51;0.70;99.90
6666;DHT22;3369;49.906;8.598;2023-12-07T18:54:17;0.60;99.90
6666;DHT22;3369;49.906;8.598;2023-12-07T18:56:46;0.60;99.90
6666;DHT22;3369;49.906;8.598;2023-12-07T18:59:11;0.60;99.90
6666;DHT22;3369;49.906;8.598;2023-12-07T19:01:37;0.50;99.90
6666;DHT22;3369;49.906;8.598;2023-12-07T19:04:03;0.50;99.90
6666;DHT22;3369;49.906;8.598;2023-12-07T19:06:29;0.40;99.90
6666;DHT22;3369;49.906;8.598;2023-12-07T19:08:54;0.40;99.90
6666;DHT22;3369;49.906;8.598;2023-12-07T19:11:20;0.30;99.90
6666;DHT22;3369;49.906;8.598;2023-12-07T19:13:46;0.30;99.90
6666;DHT22;3369;49.906;8.598;2023-12-07T19:16:12;0.30;99.90
6666;DHT22;3369;49.906;8.598;2023-12-07T19:18:41;0.30;99.90
6666;DHT22;3369;49.906;8.598;2023-12-07T19:21:07;0.20;99.90
6666;DHT22;3369;49.906;8.598;2023-12-07T19:23:32;0.20;99.90
6666;DHT22;3369;49.906;8.598;2023-12-07T19:25:59;0.20;99.90
6666;DHT22;3369;49.906;8.598;2023-12-07T19:28:24;0.20;99.90
6666;DHT22;3369;49.906;8.598;2023-12-07T19:30:50;0.20;99.90
6666;DHT22;3369;49.906;8.598;2023-12-07T19:33:16;0.20;99.90
6666;DHT22;3369;49.906;8.598;2023-12-07T19:35:42;0.10;99.90
6666;DHT22;3369;49.906;8.598;2023-12-07T19:38:09;0.10;99.90
6666;DHT22;3369;49.906;8.598;2023-12-07T19:40:35;0.10;99.90
6666;DHT22;3369;49.906;8.598;2023-12-07T19:43:01;0.10;99.90
6666;DHT22;3369;49.906;8.598;2023-12-07T19:45:27;0.10;99.90
6666;DHT22;3369;49.906;8.598;2023-12-07T19:47:53;0.10;99.90
6666;DHT22;3369;49.906;8.598;2023-12-07T19:50:19;0.10;99.90
6666;DHT22;3369;49.906;8.598;2023-12-07T19:52:44;0.10;99.90
6666;DHT22;3369;49.906;8.598;2023-12-07T19:55:10;0.20;99.90
6666;DHT22;3369;49.906;8.598;2023-12-07T19:57:36;0.20;99.90
6666;DHT22;3369;49.906;8.598;2023-12-07T20:00:08;0.20;99.90
6666;DHT22;3369;49.906;8.598;2023-12-07T20:02:35;0.20;99.90
6666;DHT22;3369;49.906;8.598;2023-12-07T20:05:01;0.20;99.90
6666;DHT22;3369;49.906;8.598;2023-12-07T20:07:28;0.20;99.90
6666;DHT22;3369;49.906;8.598;2023-12-07T20:09:54;0.20;99.90
6666;DHT22;3369;49.906;8.598;2023-12-07T20:12:20;0.20;99.90
6666;DHT22;3369;49.906;8.598;2023-12-07T20:14:46;0.20;99.90
6666;DHT22;3369;49.906;8.598;2023-12-07T20:17:13;0.20;99.90
6666;DHT22;3369;49.906;8.598;2023-12-07T20:19:38;0.20;99.90
6666;DHT22;3369;49.906;8.598;2023-12-07T20:22:04;0.20;99.90
6666;DHT22;3369;49.906;8.598;2023-12-07T20:24:37;0.20;99.90
6666;DHT22;3369;49.906;8.598;2023-12-07T20:27:04;0.30;99.90
6666;DHT22;3369;49.906;8.598;2023-12-07T20:29:31;0.30;99.90
6666;DHT22;3369;49.906;8.598;2023-12-07T20:31:57;0.30;99.90
6666;DHT22;3369;49.906;8.598;2023-12-07T20:34:23;0.40;99.90
6666;DHT22;3369;49.906;8.598;2023-12-07T20:36:49;0.40;99.90
6666;DHT22;3369;49.906;8.598;2023-12-07T20:39:15;0.40;99.90
6666;DHT22;3369;49.906;8.598;2023-12-07T20:41:45;0.40;99.90
6666;DHT22;3369;49.906;8.598;2023-12-07T20:44:10;0.40;99.90
6666;DHT22;3369;49.906;8.598;2023-12-07T20:46:37;0.50;99.90
6666;DHT22;3369;49.906;8.598;2023-12-07T20:49:02;0.50;99.90
6666;DHT22;3369;49.906;8.598;2023-12-07T20:51:28;0.50;99.90
6666;DHT22;3369;49.906;8.598;2023-12-07T20:53:54;0.50;99.90
6666;DHT22;3369;49.906;8.598;2023-12-07T20:56:19;0.50;99.90
6666;DHT22;3369;49.906;8.598;2023-12-07T20:58:45;0.50;99.90
6666;DHT22;3369;49.906;8.598;2023-12-07T21:01:11;0.50;99.90
6666;DHT22;3369;49.906;8.598;2023-12-07T21:03:37;0.50;99.90
6666;DHT22;3369;49.906;8.598;2023-12-07T21:26:55;0.60;99.90
6666;DHT22;3369;49.906;8.598;2023-12-07T21:30:10;0.60;99.90
6666;DHT22;3369;49.906;8.598;2023-12-07T22:17:00;0.70;99.90
6666;DHT22;3369;49.906;8.598;2023-12-07T22:27:09;0.70;99.90
6666;DHT22;3369;49.906;8.598;2023-12-07T22:29:56;0.70;99.90
6666;DHT22;3369;49.906;8.598;2023-12-07T22:48:47;0.80;99.90
6666;DHT22;3369;49.906;8.598;2023-12-07T22:54:56;0.80;99.90
